sensor_id;sensor_type;location;lat;lon;timestamp;temperature;humidity
15906;DHT22;8051;50.820;4.884;2023-06-04T00:01:28;14.60;96.00
15906;DHT22;8051;50.820;4.884;2023-06-04T00:03:55;14.50;96.10
15906;DHT22;8051;50.820;4.884;2023-06-04T00:06:22;14.50;96.10
15906;DHT22;8051;50.820;4.884;2023-06-04T00:08:50;14.40;96.10
15906;DHT22;8051;50.820;4.884;2023-06-04T00:11:17;14.40;96.20
15906;DHT22;8051;50.820;4.884;2023-06-04T00:13:45;14.40;96.30
15906;DHT22;8051;50.820;4.884;2023-06-04T00:16:13;14.30;96.30
15906;DHT22;8051;50.820;4.884;2023-06-04T00:18:42;14.30;96.40
15906;DHT22;8051;50.820;4.884;2023-06-04T00:21:09;14.30;96.50
15906;DHT22;8051;50.820;4.884;2023-06-04T00:23:37;14.30;96.60
15906;DHT22;8051;50.820;4.884;2023-06-04T00:26:04;14.20;96.60
15906;DHT22;8051;50.820;4.884;2023-06-04T00:28:32;14.20;96.70
15906;DHT22;8051;50.820;4.884;2023-06-04T00:30:59;14.10;96.70
15906;DHT22;8051;50.820;4.884;2023-06-04T00:33:27;14.10;96.80
15906;DHT22;8051;50.820;4.884;2023-06-04T00:35:56;14.10;96.90
15906;DHT22;8051;50.820;4.884;2023-06-04T00:38:23;14.00;97.00
15906;DHT22;8051;50.820;4.884;2023-06-04T00:40:50;14.00;97.10
15906;DHT22;8051;50.820;4.884;2023-06-04T00:43:18;13.90;97.30
15906;DHT22;8051;50.820;4.884;2023-06-04T00:45:45;13.90;97.30
15906;DHT22;8051;50.820;4.884;2023-06-04T00:48:13;13.90;97.40
15906;DHT22;8051;50.820;4.884;2023-06-04T00:50:41;13.80;97.40
15906;DHT22;8051;50.820;4.884;2023-06-04T00:53:10;13.80;97.40
15906;DHT22;8051;50.820;4.884;2023-06-04T00:55:38;13.80;97.60
15906;DHT22;8051;50.820;4.884;2023-06-04T00:58:05;13.70;97.60
15906;DHT22;8051;50.820;4.884;2023-06-04T01:00:34;13.70;97.60
15906;DHT22;8051;50.820;4.884;2023-06-04T01:03:06;13.70;97.70
15906;DHT22;8051;50.820;4.884;2023-06-04T01:05:39;13.60;97.60
15906;DHT22;8051;50.820;4.884;2023-06-04T01:08:10;13.60;97.70
15906;DHT22;8051;50.820;4.884;2023-06-04T01:10:50;13.60;97.70
15906;DHT22;8051;50.820;4.884;2023-06-04T01:13:18;13.60;98.00
15906;DHT22;8051;50.820;4.884;2023-06-04T01:15:46;13.50;98.10
15906;DHT22;8051;50.820;4.884;2023-06-04T01:18:15;13.40;98.30
15906;DHT22;8051;50.820;4.884;2023-06-04T01:20:56;13.30;98.40
15906;DHT22;8051;50.820;4.884;2023-06-04T01:23:33;13.30;98.80
15906;DHT22;8051;50.820;4.884;2023-06-04T01:26:02;13.20;99.00
15906;DHT22;8051;50.820;4.884;2023-06-04T01:28:30;13.20;99.20
15906;DHT22;8051;50.820;4.884;2023-06-04T01:30:58;13.10;99.40
15906;DHT22;8051;50.820;4.884;2023-06-04T01:33:28;13.00;99.60
15906;DHT22;8051;50.820;4.884;2023-06-04T01:35:55;12.90;99.60
15906;DHT22;8051;50.820;4.884;2023-06-04T01:38:22;12.90;99.80
15906;DHT22;8051;50.820;4.884;2023-06-04T01:40:51;12.90;99.90
15906;DHT22;8051;50.820;4.884;2023-06-04T01:43:22;12.80;99.90
15906;DHT22;8051;50.820;4.884;2023-06-04T01:45:49;12.80;99.90
15906;DHT22;8051;50.820;4.884;2023-06-04T01:48:17;12.70;99.90
15906;DHT22;8051;50.820;4.884;2023-06-04T01:50:44;12.70;99.90
15906;DHT22;8051;50.820;4.884;2023-06-04T01:53:12;12.60;99.90
15906;DHT22;8051;50.820;4.884;2023-06-04T01:55:40;12.60;99.90
15906;DHT22;8051;50.820;4.884;2023-06-04T01:58:08;12.50;99.90
15906;DHT22;8051;50.820;4.884;2023-06-04T02:00:36;12.50;99.90
15906;DHT22;8051;50.820;4.884;2023-06-04T02:03:03;12.40;99.90
15906;DHT22;8051;50.820;4.884;2023-06-04T02:05:31;12.40;99.90
15906;DHT22;8051;50.820;4.884;2023-06-04T02:07:59;12.40;99.90
15906;DHT22;8051;50.820;4.884;2023-06-04T02:10:27;12.30;99.90
15906;DHT22;8051;50.820;4.884;2023-06-04T02:12:57;12.20;99.90
15906;DHT22;8051;50.820;4.884;2023-06-04T02:15:27;12.20;99.90
15906;DHT22;8051;50.820;4.884;2023-06-04T02:17:56;12.20;99.90
15906;DHT22;8051;50.820;4.884;2023-06-04T02:20:25;12.10;99.90
15906;DHT22;8051;50.820;4.884;2023-06-04T02:22:54;12.10;99.90
15906;DHT22;8051;50.820;4.884;2023-06-04T02:25:22;12.10;99.90
15906;DHT22;8051;50.820;4.884;2023-06-04T02:27:49;12.00;99.90
15906;DHT22;8051;50.820;4.884;2023-06-04T02:30:17;12.00;99.90
15906;DHT22;8051;50.820;4.884;2023-06-04T02:32:46;12.00;99.90
15906;DHT22;8051;50.820;4.884;2023-06-04T02:35:16;11.90;99.90
15906;DHT22;8051;50.820;4.884;2023-06-04T02:37:44;11.90;99.90
15906;DHT22;8051;50.820;4.884;2023-06-04T02:40:12;11.80;99.90
15906;DHT22;8051;50.820;4.884;2023-06-04T02:42:39;11.70;99.90
15906;DHT22;8051;50.820;4.884;2023-06-04T02:45:07;11.70;99.90
15906;DHT22;8051;50.820;4.884;2023-06-04T02:47:35;11.60;99.90
15906;DHT22;8051;50.820;4.884;2023-06-04T02:50:05;11.50;99.90
15906;DHT22;8051;50.820;4.884;2023-06-04T02:52:33;11.50;99.90
15906;DHT22;8051;50.820;4.884;2023-06-04T02:55:03;11.50;99.90
15906;DHT22;8051;50.820;4.884;2023-06-04T02:57:31;11.40;99.90
15906;DHT22;8051;50.820;4.884;2023-06-04T02:59:59;11.40;99.90
15906;DHT22;8051;50.820;4.884;2023-06-04T03:02:26;11.30;99.90
15906;DHT22;8051;50.820;4.884;2023-06-04T03:04:54;11.30;99.90
15906;DHT22;8051;50.820;4.884;2023-06-04T03:07:23;11.30;99.90
15906;DHT22;8051;50.820;4.884;2023-06-04T03:09:50;11.20;99.90
15906;DHT22;8051;50.820;4.884;2023-06-04T03:12:18;11.30;99.90
15906;DHT22;8051;50.820;4.884;2023-06-04T03:14:45;11.20;99.90
15906;DHT22;8051;50.820;4.884;2023-06-04T03:17:13;11.20;99.90
15906;DHT22;8051;50.820;4.884;2023-06-04T03:19:41;11.20;99.90
15906;DHT22;8051;50.820;4.884;2023-06-04T03:22:09;11.20;99.90
15906;DHT22;8051;50.820;4.884;2023-06-04T03:24:39;11.20;99.90
15906;DHT22;8051;50.820;4.884;2023-06-04T03:27:08;11.20;99.90
15906;DHT22;8051;50.820;4.884;2023-06-04T03:29:36;11.20;99.90
15906;DHT22;8051;50.820;4.884;2023-06-04T03:32:06;11.10;99.90
15906;DHT22;8051;50.820;4.884;2023-06-04T03:34:34;11.10;99.90
15906;DHT22;8051;50.820;4.884;2023-06-04T03:37:01;11.10;99.90
15906;DHT22;8051;50.820;4.884;2023-06-04T03:39:29;11.10;99.90
15906;DHT22;8051;50.820;4.884;2023-06-04T03:41:58;11.10;99.90
15906;DHT22;8051;50.820;4.884;2023-06-04T03:44:25;11.10;99.90
15906;DHT22;8051;50.820;4.884;2023-06-04T03:46:53;11.10;99.90
15906;DHT22;8051;50.820;4.884;2023-06-04T03:49:20;11.10;99.90
15906;DHT22;8051;50.820;4.884;2023-06-04T03:51:48;11.10;99.90
15906;DHT22;8051;50.820;4.884;2023-06-04T03:54:16;11.10;99.90
15906;DHT22;8051;50.820;4.884;2023-06-04T03:56:44;11.20;99.90
15906;DHT22;8051;50.820;4.884;2023-06-04T03:59:13;11.20;99.90
15906;DHT22;8051;50.820;4.884;2023-06-04T04:01:42;11.20;99.90
15906;DHT22;8051;50.820;4.884;2023-06-04T04:04:10;11.20;99.90
15906;DHT22;8051;50.820;4.884;2023-06-04T04:06:37;11.40;99.90
15906;DHT22;8051;50.820;4.884;2023-06-04T04:09:05;11.60;99.90
15906;DHT22;8051;50.820;4.884;2023-06-04T04:11:33;11.80;99.90
15906;DHT22;8051;50.820;4.884;2023-06-04T04:14:01;12.00;99.90
15906;DHT22;8051;50.820;4.884;2023-06-04T04:16:29;12.20;99.90
15906;DHT22;8051;50.820;4.884;2023-06-04T04:18:57;12.40;99.90
15906;DHT22;8051;50.820;4.884;2023-06-04T04:21:24;12.60;99.90
15906;DHT22;8051;50.820;4.884;2023-06-04T04:23:52;12.70;99.90
15906;DHT22;8051;50.820;4.884;2023-06-04T04:26:20;12.70;99.90
15906;DHT22;8051;50.820;4.884;2023-06-04T04:28:48;12.70;99.90
15906;DHT22;8051;50.820;4.884;2023-06-04T04:31:18;12.70;99.90
15906;DHT22;8051;50.820;4.884;2023-06-04T04:33:47;12.80;99.90
15906;DHT22;8051;50.820;4.884;2023-06-04T04:36:17;13.00;99.90
15906;DHT22;8051;50.820;4.884;2023-06-04T04:38:44;13.20;99.90
15906;DHT22;8051;50.820;4.884;2023-06-04T04:41:12;13.50;99.90
15906;DHT22;8051;50.820;4.884;2023-06-04T04:43:39;13.70;99.90
15906;DHT22;8051;50.820;4.884;2023-06-04T04:46:07;13.80;99.90
15906;DHT22;8051;50.820;4.884;2023-06-04T04:48:35;13.90;99.90
15906;DHT22;8051;50.820;4.884;2023-06-04T04:51:06;14.00;99.90
15906;DHT22;8051;50.820;4.884;2023-06-04T04:53:33;14.10;99.90
15906;DHT22;8051;50.820;4.884;2023-06-04T04:56:00;14.20;99.90
15906;DHT22;8051;50.820;4.884;2023-06-04T04:58:28;14.30;99.90
15906;DHT22;8051;50.820;4.884;2023-06-04T05:00:55;14.40;99.90
15906;DHT22;8051;50.820;4.884;2023-06-04T05:03:23;14.40;99.90
15906;DHT22;8051;50.820;4.884;2023-06-04T05:05:50;14.40;99.90
15906;DHT22;8051;50.820;4.884;2023-06-04T05:08:19;14.70;99.90
15906;DHT22;8051;50.820;4.884;2023-06-04T05:10:46;14.80;99.90
15906;DHT22;8051;50.820;4.884;2023-06-04T05:13:14;14.90;99.90
15906;DHT22;8051;50.820;4.884;2023-06-04T05:15:42;15.10;99.90
15906;DHT22;8051;50.820;4.884;2023-06-04T05:18:09;15.10;99.90
15906;DHT22;8051;50.820;4.884;2023-06-04T05:20:37;15.50;99.90
15906;DHT22;8051;50.820;4.884;2023-06-04T05:23:05;15.60;99.90
15906;DHT22;8051;50.820;4.884;2023-06-04T05:25:34;15.40;99.90
15906;DHT22;8051;50.820;4.884;2023-06-04T05:28:01;15.40;99.90
15906;DHT22;8051;50.820;4.884;2023-06-04T05:30:29;15.40;99.90
15906;DHT22;8051;50.820;4.884;2023-06-04T05:32:57;15.50;99.90
15906;DHT22;8051;50.820;4.884;2023-06-04T05:35:25;15.50;99.90
15906;DHT22;8051;50.820;4.884;2023-06-04T05:37:52;15.40;99.90
15906;DHT22;8051;50.820;4.884;2023-06-04T05:40:21;15.50;99.90
15906;DHT22;8051;50.820;4.884;2023-06-04T05:42:50;15.50;99.90
15906;DHT22;8051;50.820;4.884;2023-06-04T05:45:17;15.40;99.90
15906;DHT22;8051;50.820;4.884;2023-06-04T05:47:45;15.40;99.90
15906;DHT22;8051;50.820;4.884;2023-06-04T05:50:12;15.50;99.90
15906;DHT22;8051;50.820;4.884;2023-06-04T05:52:40;15.40;99.90
15906;DHT22;8051;50.820;4.884;2023-06-04T05:55:08;15.60;99.90
15906;DHT22;8051;50.820;4.884;2023-06-04T05:57:36;15.60;99.90
15906;DHT22;8051;50.820;4.884;2023-06-04T06:00:06;15.60;99.90
15906;DHT22;8051;50.820;4.884;2023-06-04T06:02:36;15.60;99.90
15906;DHT22;8051;50.820;4.884;2023-06-04T06:05:05;15.50;99.90
15906;DHT22;8051;50.820;4.884;2023-06-04T06:07:34;15.50;99.90
15906;DHT22;8051;50.820;4.884;2023-06-04T06:10:01;15.60;99.90
15906;DHT22;8051;50.820;4.884;2023-06-04T06:12:29;15.60;99.90
15906;DHT22;8051;50.820;4.884;2023-06-04T06:14:56;15.80;99.90
15906;DHT22;8051;50.820;4.884;2023-06-04T06:17:28;15.70;99.90
15906;DHT22;8051;50.820;4.884;2023-06-04T06:19:56;15.80;99.90
15906;DHT22;8051;50.820;4.884;2023-06-04T06:22:23;15.70;99.90
15906;DHT22;8051;50.820;4.884;2023-06-04T06:24:51;15.60;99.90
15906;DHT22;8051;50.820;4.884;2023-06-04T06:27:18;15.50;99.90
15906;DHT22;8051;50.820;4.884;2023-06-04T06:29:46;15.40;99.90
15906;DHT22;8051;50.820;4.884;2023-06-04T06:32:14;15.60;99.90
15906;DHT22;8051;50.820;4.884;2023-06-04T06:34:43;15.50;99.90
15906;DHT22;8051;50.820;4.884;2023-06-04T06:37:11;15.50;99.90
15906;DHT22;8051;50.820;4.884;2023-06-04T06:39:38;15.50;99.90
15906;DHT22;8051;50.820;4.884;2023-06-04T06:42:06;15.50;99.90
15906;DHT22;8051;50.820;4.884;2023-06-04T06:44:33;15.60;99.90
15906;DHT22;8051;50.820;4.884;2023-06-04T06:47:01;15.60;99.90
15906;DHT22;8051;50.820;4.884;2023-06-04T06:49:28;15.60;99.90
15906;DHT22;8051;50.820;4.884;2023-06-04T06:51:57;15.70;99.90
15906;DHT22;8051;50.820;4.884;2023-06-04T06:54:24;15.80;99.90
15906;DHT22;8051;50.820;4.884;2023-06-04T06:56:52;16.00;99.90
15906;DHT22;8051;50.820;4.884;2023-06-04T06:59:19;16.00;99.90
15906;DHT22;8051;50.820;4.884;2023-06-04T07:01:47;16.10;99.90
15906;DHT22;8051;50.820;4.884;2023-06-04T07:04:16;16.10;99.90
15906;DHT22;8051;50.820;4.884;2023-06-04T07:06:43;16.10;99.90
15906;DHT22;8051;50.820;4.884;2023-06-04T07:09:13;16.20;99.90
15906;DHT22;8051;50.820;4.884;2023-06-04T07:11:40;16.30;99.90
15906;DHT22;8051;50.820;4.884;2023-06-04T07:14:07;16.40;99.90
15906;DHT22;8051;50.820;4.884;2023-06-04T07:16:35;16.50;99.90
15906;DHT22;8051;50.820;4.884;2023-06-04T07:19:03;16.50;99.90
15906;DHT22;8051;50.820;4.884;2023-06-04T07:21:30;16.70;99.90
15906;DHT22;8051;50.820;4.884;2023-06-04T07:23:58;16.70;99.90
15906;DHT22;8051;50.820;4.884;2023-06-04T07:26:27;16.70;99.90
15906;DHT22;8051;50.820;4.884;2023-06-04T07:28:56;16.80;99.90
15906;DHT22;8051;50.820;4.884;2023-06-04T07:31:24;16.80;99.90
15906;DHT22;8051;50.820;4.884;2023-06-04T07:33:51;16.90;99.90
15906;DHT22;8051;50.820;4.884;2023-06-04T07:36:19;17.10;99.90
15906;DHT22;8051;50.820;4.884;2023-06-04T07:38:47;17.10;99.90
15906;DHT22;8051;50.820;4.884;2023-06-04T07:41:14;17.10;99.90
15906;DHT22;8051;50.820;4.884;2023-06-04T07:43:55;17.40;99.90
15906;DHT22;8051;50.820;4.884;2023-06-04T07:46:31;17.50;99.90
15906;DHT22;8051;50.820;4.884;2023-06-04T07:49:03;17.50;99.90
15906;DHT22;8051;50.820;4.884;2023-06-04T07:51:45;17.40;99.90
15906;DHT22;8051;50.820;4.884;2023-06-04T07:54:13;17.40;99.90
15906;DHT22;8051;50.820;4.884;2023-06-04T07:56:42;17.60;99.90
15906;DHT22;8051;50.820;4.884;2023-06-04T07:59:11;17.70;99.90
15906;DHT22;8051;50.820;4.884;2023-06-04T08:01:39;17.70;99.90
15906;DHT22;8051;50.820;4.884;2023-06-04T08:04:06;17.70;99.90
15906;DHT22;8051;50.820;4.884;2023-06-04T08:06:34;17.80;99.90
15906;DHT22;8051;50.820;4.884;2023-06-04T08:09:01;18.00;99.90
15906;DHT22;8051;50.820;4.884;2023-06-04T08:11:29;17.90;99.90
15906;DHT22;8051;50.820;4.884;2023-06-04T08:13:57;18.00;99.90
15906;DHT22;8051;50.820;4.884;2023-06-04T08:16:26;18.10;99.90
15906;DHT22;8051;50.820;4.884;2023-06-04T08:18:53;18.10;99.90
15906;DHT22;8051;50.820;4.884;2023-06-04T08:21:25;18.20;99.90
15906;DHT22;8051;50.820;4.884;2023-06-04T08:23:53;18.20;99.90
15906;DHT22;8051;50.820;4.884;2023-06-04T08:26:21;18.20;99.90
15906;DHT22;8051;50.820;4.884;2023-06-04T08:28:49;18.30;99.90
15906;DHT22;8051;50.820;4.884;2023-06-04T08:31:17;18.40;99.90
15906;DHT22;8051;50.820;4.884;2023-06-04T08:33:46;18.60;99.90
15906;DHT22;8051;50.820;4.884;2023-06-04T08:36:14;18.60;99.90
15906;DHT22;8051;50.820;4.884;2023-06-04T08:38:41;18.70;99.90
15906;DHT22;8051;50.820;4.884;2023-06-04T08:41:13;18.90;99.90
15906;DHT22;8051;50.820;4.884;2023-06-04T08:43:42;19.00;99.90
15906;DHT22;8051;50.820;4.884;2023-06-04T08:46:12;19.10;99.90
15906;DHT22;8051;50.820;4.884;2023-06-04T08:48:39;19.10;99.90
15906;DHT22;8051;50.820;4.884;2023-06-04T08:51:08;19.10;99.90
15906;DHT22;8051;50.820;4.884;2023-06-04T08:53:38;19.20;99.90
15906;DHT22;8051;50.820;4.884;2023-06-04T08:56:05;19.30;99.90
15906;DHT22;8051;50.820;4.884;2023-06-04T08:58:33;19.30;99.90
15906;DHT22;8051;50.820;4.884;2023-06-04T09:01:01;19.40;99.90
15906;DHT22;8051;50.820;4.884;2023-06-04T09:03:28;19.40;99.90
15906;DHT22;8051;50.820;4.884;2023-06-04T09:05:58;19.40;99.90
15906;DHT22;8051;50.820;4.884;2023-06-04T09:08:38;19.60;99.90
15906;DHT22;8051;50.820;4.884;2023-06-04T09:11:10;19.70;99.90
15906;DHT22;8051;50.820;4.884;2023-06-04T09:13:47;19.80;99.90
15906;DHT22;8051;50.820;4.884;2023-06-04T09:16:20;19.80;99.90
15906;DHT22;8051;50.820;4.884;2023-06-04T09:18:48;20.00;99.90
15906;DHT22;8051;50.820;4.884;2023-06-04T09:21:15;20.10;99.90
15906;DHT22;8051;50.820;4.884;2023-06-04T09:23:47;20.20;99.90
15906;DHT22;8051;50.820;4.884;2023-06-04T09:26:15;20.30;99.90
15906;DHT22;8051;50.820;4.884;2023-06-04T09:28:43;20.30;99.90
15906;DHT22;8051;50.820;4.884;2023-06-04T09:31:14;20.40;99.90
15906;DHT22;8051;50.820;4.884;2023-06-04T09:33:43;20.50;99.90
15906;DHT22;8051;50.820;4.884;2023-06-04T09:36:10;20.50;99.90
15906;DHT22;8051;50.820;4.884;2023-06-04T09:38:39;20.40;99.90
15906;DHT22;8051;50.820;4.884;2023-06-04T09:41:13;20.50;99.90
15906;DHT22;8051;50.820;4.884;2023-06-04T09:43:41;20.50;99.90
15906;DHT22;8051;50.820;4.884;2023-06-04T09:46:13;20.80;99.90
15906;DHT22;8051;50.820;4.884;2023-06-04T09:48:41;20.70;99.90
15906;DHT22;8051;50.820;4.884;2023-06-04T09:51:09;20.80;99.90
15906;DHT22;8051;50.820;4.884;2023-06-04T09:53:38;20.80;99.90
15906;DHT22;8051;50.820;4.884;2023-06-04T09:56:07;20.70;99.90
15906;DHT22;8051;50.820;4.884;2023-06-04T09:58:38;20.80;99.90
15906;DHT22;8051;50.820;4.884;2023-06-04T10:01:06;21.00;99.90
15906;DHT22;8051;50.820;4.884;2023-06-04T10:03:35;21.00;99.90
15906;DHT22;8051;50.820;4.884;2023-06-04T10:06:03;21.10;99.90
15906;DHT22;8051;50.820;4.884;2023-06-04T10:08:32;21.20;99.90
15906;DHT22;8051;50.820;4.884;2023-06-04T10:11:01;21.20;99.90
15906;DHT22;8051;50.820;4.884;2023-06-04T10:13:31;21.20;99.90
15906;DHT22;8051;50.820;4.884;2023-06-04T10:16:03;21.30;99.90
15906;DHT22;8051;50.820;4.884;2023-06-04T10:18:32;21.40;99.90
15906;DHT22;8051;50.820;4.884;2023-06-04T10:21:00;21.40;99.90
15906;DHT22;8051;50.820;4.884;2023-06-04T10:23:27;21.50;99.90
15906;DHT22;8051;50.820;4.884;2023-06-04T10:25:55;21.40;99.90
15906;DHT22;8051;50.820;4.884;2023-06-04T10:28:23;21.40;99.90
15906;DHT22;8051;50.820;4.884;2023-06-04T10:30:50;21.50;99.90
15906;DHT22;8051;50.820;4.884;2023-06-04T10:33:21;21.40;99.90
15906;DHT22;8051;50.820;4.884;2023-06-04T10:35:50;21.40;99.90
15906;DHT22;8051;50.820;4.884;2023-06-04T10:38:18;21.40;99.90
15906;DHT22;8051;50.820;4.884;2023-06-04T10:40:47;21.50;99.90
15906;DHT22;8051;50.820;4.884;2023-06-04T10:43:15;21.60;99.90
15906;DHT22;8051;50.820;4.884;2023-06-04T10:45:44;21.50;99.90
15906;DHT22;8051;50.820;4.884;2023-06-04T10:48:12;21.60;99.90
15906;DHT22;8051;50.820;4.884;2023-06-04T10:50:52;21.60;99.90
15906;DHT22;8051;50.820;4.884;2023-06-04T10:53:19;21.60;99.90
15906;DHT22;8051;50.820;4.884;2023-06-04T10:55:49;21.80;99.90
15906;DHT22;8051;50.820;4.884;2023-06-04T10:58:17;22.00;99.90
15906;DHT22;8051;50.820;4.884;2023-06-04T11:00:46;22.00;99.90
15906;DHT22;8051;50.820;4.884;2023-06-04T11:03:16;21.80;99.90
15906;DHT22;8051;50.820;4.884;2023-06-04T11:05:45;21.80;99.90
15906;DHT22;8051;50.820;4.884;2023-06-04T11:08:14;21.90;99.90
15906;DHT22;8051;50.820;4.884;2023-06-04T11:10:43;22.00;99.90
15906;DHT22;8051;50.820;4.884;2023-06-04T11:13:10;22.00;99.70
15906;DHT22;8051;50.820;4.884;2023-06-04T11:15:39;22.00;99.80
15906;DHT22;8051;50.820;4.884;2023-06-04T11:18:07;22.20;99.90
15906;DHT22;8051;50.820;4.884;2023-06-04T11:20:34;22.20;99.60
15906;DHT22;8051;50.820;4.884;2023-06-04T11:23:02;22.30;99.20
15906;DHT22;8051;50.820;4.884;2023-06-04T11:25:33;22.20;99.20
15906;DHT22;8051;50.820;4.884;2023-06-04T11:28:01;22.30;99.90
15906;DHT22;8051;50.820;4.884;2023-06-04T11:30:28;22.40;99.90
15906;DHT22;8051;50.820;4.884;2023-06-04T11:33:03;22.30;99.70
15906;DHT22;8051;50.820;4.884;2023-06-04T11:35:31;22.30;99.90
15906;DHT22;8051;50.820;4.884;2023-06-04T11:37:59;22.40;99.90
15906;DHT22;8051;50.820;4.884;2023-06-04T11:40:26;22.40;99.20
15906;DHT22;8051;50.820;4.884;2023-06-04T11:42:55;22.40;99.90
15906;DHT22;8051;50.820;4.884;2023-06-04T11:45:23;22.60;98.10
15906;DHT22;8051;50.820;4.884;2023-06-04T11:47:53;22.50;98.80
15906;DHT22;8051;50.820;4.884;2023-06-04T11:50:22;22.40;98.00
15906;DHT22;8051;50.820;4.884;2023-06-04T11:52:51;22.50;99.90
15906;DHT22;8051;50.820;4.884;2023-06-04T11:55:19;22.70;98.40
15906;DHT22;8051;50.820;4.884;2023-06-04T11:57:48;22.60;98.80
15906;DHT22;8051;50.820;4.884;2023-06-04T12:00:18;22.80;98.60
15906;DHT22;8051;50.820;4.884;2023-06-04T12:02:50;22.90;98.50
15906;DHT22;8051;50.820;4.884;2023-06-04T12:05:20;23.00;98.70
15906;DHT22;8051;50.820;4.884;2023-06-04T12:07:49;22.80;98.00
15906;DHT22;8051;50.820;4.884;2023-06-04T12:10:17;22.90;98.40
15906;DHT22;8051;50.820;4.884;2023-06-04T12:12:45;23.00;97.50
15906;DHT22;8051;50.820;4.884;2023-06-04T12:15:20;23.10;98.60
15906;DHT22;8051;50.820;4.884;2023-06-04T12:17:51;23.10;98.20
15906;DHT22;8051;50.820;4.884;2023-06-04T12:20:27;23.30;97.80
15906;DHT22;8051;50.820;4.884;2023-06-04T12:22:58;23.10;96.50
15906;DHT22;8051;50.820;4.884;2023-06-04T12:25:26;23.10;96.60
15906;DHT22;8051;50.820;4.884;2023-06-04T12:27:54;23.10;97.00
15906;DHT22;8051;50.820;4.884;2023-06-04T12:30:33;23.10;96.50
15906;DHT22;8051;50.820;4.884;2023-06-04T12:33:01;23.20;96.00
15906;DHT22;8051;50.820;4.884;2023-06-04T12:35:29;23.20;94.90
15906;DHT22;8051;50.820;4.884;2023-06-04T12:37:56;23.20;96.00
15906;DHT22;8051;50.820;4.884;2023-06-04T12:40:24;23.20;95.70
15906;DHT22;8051;50.820;4.884;2023-06-04T12:42:51;23.40;96.90
15906;DHT22;8051;50.820;4.884;2023-06-04T12:45:19;23.50;94.70
15906;DHT22;8051;50.820;4.884;2023-06-04T12:47:48;23.50;95.80
15906;DHT22;8051;50.820;4.884;2023-06-04T12:50:15;23.50;94.90
15906;DHT22;8051;50.820;4.884;2023-06-04T12:52:44;23.60;96.00
15906;DHT22;8051;50.820;4.884;2023-06-04T12:55:12;23.60;94.80
15906;DHT22;8051;50.820;4.884;2023-06-04T12:57:39;23.50;94.80
15906;DHT22;8051;50.820;4.884;2023-06-04T13:00:10;23.50;94.90
15906;DHT22;8051;50.820;4.884;2023-06-04T13:02:38;23.50;95.60
15906;DHT22;8051;50.820;4.884;2023-06-04T13:05:08;23.60;95.00
15906;DHT22;8051;50.820;4.884;2023-06-04T13:07:35;23.70;96.10
15906;DHT22;8051;50.820;4.884;2023-06-04T13:10:03;23.70;96.10
15906;DHT22;8051;50.820;4.884;2023-06-04T13:12:31;23.80;94.60
15906;DHT22;8051;50.820;4.884;2023-06-04T13:14:59;23.70;94.50
15906;DHT22;8051;50.820;4.884;2023-06-04T13:17:28;23.80;94.70
15906;DHT22;8051;50.820;4.884;2023-06-04T13:19:55;23.70;93.70
15906;DHT22;8051;50.820;4.884;2023-06-04T13:22:24;23.70;94.40
15906;DHT22;8051;50.820;4.884;2023-06-04T13:24:52;23.90;95.20
15906;DHT22;8051;50.820;4.884;2023-06-04T13:27:19;24.10;95.00
15906;DHT22;8051;50.820;4.884;2023-06-04T13:29:47;24.10;93.60
15906;DHT22;8051;50.820;4.884;2023-06-04T13:32:14;24.10;93.30
15906;DHT22;8051;50.820;4.884;2023-06-04T13:34:42;24.10;93.60
15906;DHT22;8051;50.820;4.884;2023-06-04T13:37:09;24.10;93.00
15906;DHT22;8051;50.820;4.884;2023-06-04T13:39:39;24.10;94.00
15906;DHT22;8051;50.820;4.884;2023-06-04T13:42:07;24.10;93.40
15906;DHT22;8051;50.820;4.884;2023-06-04T13:44:34;24.20;93.30
15906;DHT22;8051;50.820;4.884;2023-06-04T13:47:02;24.40;93.90
15906;DHT22;8051;50.820;4.884;2023-06-04T13:49:32;24.50;92.60
15906;DHT22;8051;50.820;4.884;2023-06-04T13:51:59;24.40;92.70
15906;DHT22;8051;50.820;4.884;2023-06-04T13:54:27;24.30;92.50
15906;DHT22;8051;50.820;4.884;2023-06-04T13:56:56;24.40;92.80
15906;DHT22;8051;50.820;4.884;2023-06-04T13:59:23;24.50;92.60
15906;DHT22;8051;50.820;4.884;2023-06-04T14:01:51;24.60;91.90
15906;DHT22;8051;50.820;4.884;2023-06-04T14:04:19;24.60;91.60
15906;DHT22;8051;50.820;4.884;2023-06-04T14:06:46;24.60;92.30
15906;DHT22;8051;50.820;4.884;2023-06-04T14:09:14;24.50;92.10
15906;DHT22;8051;50.820;4.884;2023-06-04T14:11:42;24.60;91.10
15906;DHT22;8051;50.820;4.884;2023-06-04T14:14:11;24.60;90.80
15906;DHT22;8051;50.820;4.884;2023-06-04T14:16:38;24.80;91.00
15906;DHT22;8051;50.820;4.884;2023-06-04T14:19:06;24.60;89.80
15906;DHT22;8051;50.820;4.884;2023-06-04T14:21:33;24.70;90.60
15906;DHT22;8051;50.820;4.884;2023-06-04T14:24:01;24.70;90.20
15906;DHT22;8051;50.820;4.884;2023-06-04T14:26:29;24.60;90.00
15906;DHT22;8051;50.820;4.884;2023-06-04T14:28:57;24.60;90.00
15906;DHT22;8051;50.820;4.884;2023-06-04T14:31:26;24.50;90.00
15906;DHT22;8051;50.820;4.884;2023-06-04T14:33:54;24.50;90.30
15906;DHT22;8051;50.820;4.884;2023-06-04T14:36:22;24.60;91.10
15906;DHT22;8051;50.820;4.884;2023-06-04T14:38:49;24.40;90.30
15906;DHT22;8051;50.820;4.884;2023-06-04T14:41:17;24.50;90.30
15906;DHT22;8051;50.820;4.884;2023-06-04T14:43:44;24.60;90.30
15906;DHT22;8051;50.820;4.884;2023-06-04T14:46:12;24.70;90.00
15906;DHT22;8051;50.820;4.884;2023-06-04T14:48:41;24.60;89.80
15906;DHT22;8051;50.820;4.884;2023-06-04T14:51:08;24.70;89.80
15906;DHT22;8051;50.820;4.884;2023-06-04T14:53:36;24.50;88.10
15906;DHT22;8051;50.820;4.884;2023-06-04T14:56:05;24.60;89.30
15906;DHT22;8051;50.820;4.884;2023-06-04T14:58:32;24.90;88.50
15906;DHT22;8051;50.820;4.884;2023-06-04T15:01:00;24.80;88.30
15906;DHT22;8051;50.820;4.884;2023-06-04T15:03:29;25.00;90.10
15906;DHT22;8051;50.820;4.884;2023-06-04T15:05:58;25.00;89.30
15906;DHT22;8051;50.820;4.884;2023-06-04T15:08:27;25.00;88.90
15906;DHT22;8051;50.820;4.884;2023-06-04T15:10:54;24.90;87.50
15906;DHT22;8051;50.820;4.884;2023-06-04T15:13:21;24.80;88.50
15906;DHT22;8051;50.820;4.884;2023-06-04T15:15:49;24.90;88.30
15906;DHT22;8051;50.820;4.884;2023-06-04T15:18:16;25.00;88.40
15906;DHT22;8051;50.820;4.884;2023-06-04T15:20:44;24.90;86.50
15906;DHT22;8051;50.820;4.884;2023-06-04T15:23:13;24.80;86.20
15906;DHT22;8051;50.820;4.884;2023-06-04T15:25:41;24.80;88.40
15906;DHT22;8051;50.820;4.884;2023-06-04T15:28:08;24.90;86.10
15906;DHT22;8051;50.820;4.884;2023-06-04T15:30:36;24.90;85.60
15906;DHT22;8051;50.820;4.884;2023-06-04T15:33:03;25.20;87.10
15906;DHT22;8051;50.820;4.884;2023-06-04T15:35:30;25.60;86.90
15906;DHT22;8051;50.820;4.884;2023-06-04T15:37:58;26.80;86.10
15906;DHT22;8051;50.820;4.884;2023-06-04T15:40:27;29.60;86.40
15906;DHT22;8051;50.820;4.884;2023-06-04T15:42:54;31.20;81.10
15906;DHT22;8051;50.820;4.884;2023-06-04T15:45:22;32.60;78.90
15906;DHT22;8051;50.820;4.884;2023-06-04T15:47:50;32.70;75.30
15906;DHT22;8051;50.820;4.884;2023-06-04T15:50:18;32.30;74.60
15906;DHT22;8051;50.820;4.884;2023-06-04T15:52:45;32.70;73.50